TimeCET,TemperatureF,Dew PointF,Humidity,Sea Level PressureIn,VisibilityMPH,Wind Direction,Wind SpeedMPH,Gust SpeedMPH,PrecipitationIn,Events,Conditions,WindDirDegrees,DateUTC
12:00 AM,42.8,39.2,87,29.71,-9999.0,West,12.7,-,N/A,,Clear,260,2012-11-05 23:00:00
1:00 AM,41.0,37.4,87,29.74,-9999.0,West,12.7,-,N/A,,Clear,260,2012-11-06 00:00:00
2:00 AM,42.8,37.4,81,29.74,-9999.0,WSW,9.2,-,N/A,,Clear,250,2012-11-06 01:00:00
3:00 AM,41.0,37.4,87,29.74,6.2,West,8.1,-,N/A,,Mostly Cloudy,260,2012-11-06 02:00:00
4:00 AM,42.8,37.4,81,29.74,6.2,West,6.9,-,N/A,,Mostly Cloudy,270,2012-11-06 03:00:00
5:00 AM,42.8,39.2,87,29.77,6.2,NW,4.6,-,N/A,,Mostly Cloudy,310,2012-11-06 04:00:00
6:00 AM,41.0,39.2,93,29.77,6.2,WNW,6.9,-,N/A,Rain,Rain Showers,300,2012-11-06 05:00:00
7:00 AM,39.2,37.4,93,29.80,4.3,WNW,5.8,-,N/A,Rain,Rain,300,2012-11-06 06:00:00
8:00 AM,39.2,37.4,93,29.86,6.2,West,9.2,-,N/A,Rain,Light Rain,260,2012-11-06 07:00:00
9:00 AM,39.2,37.4,93,29.89,6.2,West,6.9,-,N/A,,Overcast,280,2012-11-06 08:00:00
10:00 AM,41.0,39.2,93,29.89,6.2,West,8.1,-,N/A,,Overcast,270,2012-11-06 09:00:00
11:00 AM,42.8,37.4,81,29.92,6.2,West,12.7,-,N/A,,Mostly Cloudy,280,2012-11-06 10:00:00
12:00 PM,44.6,37.4,76,29.92,6.2,West,13.8,24.2,N/A,,Mostly Cloudy,260,2012-11-06 11:00:00
1:00 PM,44.6,37.4,76,29.92,6.2,West,12.7,-,N/A,,Mostly Cloudy,260,2012-11-06 12:00:00
2:00 PM,46.4,35.6,66,29.95,6.2,West,12.7,-,N/A,,Mostly Cloudy,270,2012-11-06 13:00:00
3:00 PM,41.0,37.4,87,29.95,6.2,West,9.2,-,N/A,,Mostly Cloudy,270,2012-11-06 14:00:00
4:00 PM,39.2,37.4,93,29.98,6.2,West,10.4,-,N/A,,Mostly Cloudy,270,2012-11-06 15:00:00
5:00 PM,39.2,37.4,93,30.01,6.2,West,6.9,-,N/A,,Mostly Cloudy,270,2012-11-06 16:00:00
6:00 PM,39.2,37.4,93,30.01,-9999.0,West,9.2,-,N/A,,Clear,270,2012-11-06 17:00:00
7:00 PM,37.4,35.6,93,30.04,-9999.0,WSW,8.1,-,N/A,,Clear,250,2012-11-06 18:00:00
8:00 PM,39.2,35.6,87,30.04,6.2,West,8.1,-,N/A,,Mostly Cloudy,260,2012-11-06 19:00:00
9:00 PM,37.4,35.6,93,30.06,6.2,WSW,5.8,-,N/A,,Scattered Clouds,250,2012-11-06 20:00:00
10:00 PM,37.4,33.8,87,30.06,-9999.0,WSW,6.9,-,N/A,,Clear,240,2012-11-06 21:00:00
11:00 PM,37.4,33.8,87,30.06,-9999.0,WSW,8.1,-,N/A,,Clear,250,2012-11-06 22:00:00